sensor_id;sensor_type;location;lat;lon;timestamp;pressure;altitude;pressure_sealevel;temperature;humidity
58072;BME280;60383;46.626;18.866;2023-02-22T00:00:50;100493.19;;;8.57;68.17
58072;BME280;60383;46.626;18.866;2023-02-22T00:03:25;100478.78;;;8.45;68.87
58072;BME280;60383;46.626;18.866;2023-02-22T00:05:56;100483.69;;;8.52;68.71
58072;BME280;60383;46.626;18.866;2023-02-22T00:08:30;100488.47;;;8.50;68.68
58072;BME280;60383;46.626;18.866;2023-02-22T00:11:01;100488.41;;;8.30;69.10
58072;BME280;60383;46.626;18.866;2023-02-22T00:13:28;100494.13;;;8.27;68.91
58072;BME280;60383;46.626;18.866;2023-02-22T00:15:54;100501.47;;;8.26;69.40
58072;BME280;60383;46.626;18.866;2023-02-22T00:18:20;100498.44;;;8.29;69.35
58072;BME280;60383;46.626;18.866;2023-02-22T00:20:45;100500.34;;;8.29;68.88
58072;BME280;60383;46.626;18.866;2023-02-22T00:23:20;100498.75;;;8.26;69.26
58072;BME280;60383;46.626;18.866;2023-02-22T00:25:48;100505.63;;;8.30;69.29
58072;BME280;60383;46.626;18.866;2023-02-22T00:28:15;100497.44;;;8.21;69.15
58072;BME280;60383;46.626;18.866;2023-02-22T00:30:41;100493.72;;;8.31;69.05
58072;BME280;60383;46.626;18.866;2023-02-22T00:33:13;100493.16;;;8.38;69.01
58072;BME280;60383;46.626;18.866;2023-02-22T00:35:39;100496.28;;;8.23;68.83
58072;BME280;60383;46.626;18.866;2023-02-22T00:38:04;100495.56;;;8.21;69.43
58072;BME280;60383;46.626;18.866;2023-02-22T00:40:32;100500.72;;;8.05;70.31
58072;BME280;60383;46.626;18.866;2023-02-22T00:43:00;100496.50;;;8.00;70.18
58072;BME280;60383;46.626;18.866;2023-02-22T00:45:28;100500.56;;;8.06;70.33
58072;BME280;60383;46.626;18.866;2023-02-22T00:47:53;100499.69;;;7.96;70.27
58072;BME280;60383;46.626;18.866;2023-02-22T00:50:21;100496.28;;;7.73;71.46
58072;BME280;60383;46.626;18.866;2023-02-22T00:52:47;100510.81;;;7.83;71.21
58072;BME280;60383;46.626;18.866;2023-02-22T00:55:21;100503.66;;;7.92;70.94
58072;BME280;60383;46.626;18.866;2023-02-22T00:57:47;100495.47;;;7.82;70.91
58072;BME280;60383;46.626;18.866;2023-02-22T01:00:26;100497.22;;;7.93;70.30
58072;BME280;60383;46.626;18.866;2023-02-22T01:02:52;100503.06;;;7.88;70.23
58072;BME280;60383;46.626;18.866;2023-02-22T01:05:21;100500.28;;;7.68;70.82
58072;BME280;60383;46.626;18.866;2023-02-22T01:07:48;100496.84;;;7.76;70.80
58072;BME280;60383;46.626;18.866;2023-02-22T01:10:16;100495.47;;;7.82;71.04
58072;BME280;60383;46.626;18.866;2023-02-22T01:12:43;100494.28;;;7.75;70.47
58072;BME280;60383;46.626;18.866;2023-02-22T01:15:10;100491.66;;;7.63;70.96
58072;BME280;60383;46.626;18.866;2023-02-22T01:17:37;100488.78;;;7.65;70.61
58072;BME280;60383;46.626;18.866;2023-02-22T01:20:05;100487.19;;;7.62;70.82
58072;BME280;60383;46.626;18.866;2023-02-22T01:22:38;100489.94;;;7.62;70.90
58072;BME280;60383;46.626;18.866;2023-02-22T01:25:04;100488.16;;;7.82;70.09
58072;BME280;60383;46.626;18.866;2023-02-22T01:27:32;100491.28;;;7.78;70.44
58072;BME280;60383;46.626;18.866;2023-02-22T01:29:58;100490.06;;;7.61;71.08
58072;BME280;60383;46.626;18.866;2023-02-22T01:32:23;100482.59;;;7.63;70.23
58072;BME280;60383;46.626;18.866;2023-02-22T01:34:52;100486.63;;;7.59;70.42
58072;BME280;60383;46.626;18.866;2023-02-22T01:37:17;100483.56;;;7.52;70.87
58072;BME280;60383;46.626;18.866;2023-02-22T01:39:43;100488.75;;;7.55;71.19
58072;BME280;60383;46.626;18.866;2023-02-22T01:42:08;100490.06;;;7.61;71.38
58072;BME280;60383;46.626;18.866;2023-02-22T01:44:36;100490.94;;;7.61;70.82
58072;BME280;60383;46.626;18.866;2023-02-22T01:47:04;100487.94;;;7.64;70.97
58072;BME280;60383;46.626;18.866;2023-02-22T01:49:40;100488.50;;;7.58;70.73
58072;BME280;60383;46.626;18.866;2023-02-22T01:52:12;100486.47;;;7.60;70.73
58072;BME280;60383;46.626;18.866;2023-02-22T01:54:48;100489.28;;;7.49;71.49
58072;BME280;60383;46.626;18.866;2023-02-22T01:57:32;100487.59;;;7.58;71.16
58072;BME280;60383;46.626;18.866;2023-02-22T02:00:06;100485.56;;;7.50;70.96
58072;BME280;60383;46.626;18.866;2023-02-22T02:02:37;100480.38;;;7.47;71.38
58072;BME280;60383;46.626;18.866;2023-02-22T02:05:05;100483.81;;;7.39;71.15
58072;BME280;60383;46.626;18.866;2023-02-22T02:07:33;100482.50;;;7.43;71.16
58072;BME280;60383;46.626;18.866;2023-02-22T02:10:03;100476.22;;;7.43;71.17
58072;BME280;60383;46.626;18.866;2023-02-22T02:12:32;100475.63;;;7.39;71.54
58072;BME280;60383;46.626;18.866;2023-02-22T02:15:24;100473.03;;;7.38;71.58
58072;BME280;60383;46.626;18.866;2023-02-22T02:17:51;100465.47;;;7.41;72.07
58072;BME280;60383;46.626;18.866;2023-02-22T02:20:35;100468.22;;;7.51;71.48
58072;BME280;60383;46.626;18.866;2023-02-22T02:26:42;100471.38;;;7.25;72.14
58072;BME280;60383;46.626;18.866;2023-02-22T02:29:12;100470.72;;;7.33;71.82
58072;BME280;60383;46.626;18.866;2023-02-22T02:35:02;100471.38;;;7.25;72.66
58072;BME280;60383;46.626;18.866;2023-02-22T02:40:20;100476.56;;;7.07;72.51
58072;BME280;60383;46.626;18.866;2023-02-22T02:43:00;100476.13;;;7.23;72.49
58072;BME280;60383;46.626;18.866;2023-02-22T02:45:37;100479.97;;;6.99;72.82
58072;BME280;60383;46.626;18.866;2023-02-22T02:48:07;100481.09;;;6.76;73.29
58072;BME280;60383;46.626;18.866;2023-02-22T02:50:47;100478.38;;;6.76;73.97
58072;BME280;60383;46.626;18.866;2023-02-22T02:53:18;100475.25;;;6.80;73.40
58072;BME280;60383;46.626;18.866;2023-02-22T02:55:45;100474.38;;;6.80;73.32
58072;BME280;60383;46.626;18.866;2023-02-22T02:58:17;100484.22;;;6.71;73.74
58072;BME280;60383;46.626;18.866;2023-02-22T03:00:44;100481.59;;;6.69;73.95
58072;BME280;60383;46.626;18.866;2023-02-22T03:11:17;100477.13;;;6.80;73.56
58072;BME280;60383;46.626;18.866;2023-02-22T03:16:39;100470.38;;;6.42;75.11
58072;BME280;60383;46.626;18.866;2023-02-22T03:21:55;100466.53;;;6.44;75.63
58072;BME280;60383;46.626;18.866;2023-02-22T03:24:44;100468.88;;;6.37;76.08
58072;BME280;60383;46.626;18.866;2023-02-22T03:27:59;100468.25;;;6.45;75.59
58072;BME280;60383;46.626;18.866;2023-02-22T03:30:11;100469.25;;;6.44;76.45
58072;BME280;60383;46.626;18.866;2023-02-22T03:32:43;100477.50;;;6.43;75.69
58072;BME280;60383;46.626;18.866;2023-02-22T03:35:15;100476.81;;;6.41;76.09
58072;BME280;60383;46.626;18.866;2023-02-22T03:37:45;100474.78;;;6.43;75.88
58072;BME280;60383;46.626;18.866;2023-02-22T03:40:16;100480.28;;;6.31;76.10
58072;BME280;60383;46.626;18.866;2023-02-22T03:42:53;100482.94;;;6.43;75.82
58072;BME280;60383;46.626;18.866;2023-02-22T03:45:21;100473.56;;;6.47;75.47
58072;BME280;60383;46.626;18.866;2023-02-22T03:47:56;100475.22;;;6.38;75.84
58072;BME280;60383;46.626;18.866;2023-02-22T03:50:33;100486.25;;;6.58;75.12
58072;BME280;60383;46.626;18.866;2023-02-22T03:53:00;100486.72;;;6.63;74.44
58072;BME280;60383;46.626;18.866;2023-02-22T03:55:26;100478.25;;;6.45;75.45
58072;BME280;60383;46.626;18.866;2023-02-22T03:57:58;100481.88;;;6.45;75.53
58072;BME280;60383;46.626;18.866;2023-02-22T04:00:27;100484.38;;;6.58;75.41
58072;BME280;60383;46.626;18.866;2023-02-22T04:02:54;100487.84;;;6.60;75.09
58072;BME280;60383;46.626;18.866;2023-02-22T04:05:19;100484.06;;;6.40;76.09
58072;BME280;60383;46.626;18.866;2023-02-22T04:07:45;100485.03;;;6.50;75.39
58072;BME280;60383;46.626;18.866;2023-02-22T04:10:11;100488.75;;;6.49;75.20
58072;BME280;60383;46.626;18.866;2023-02-22T04:12:37;100499.19;;;6.65;74.97
58072;BME280;60383;46.626;18.866;2023-02-22T04:15:04;100495.31;;;6.47;75.28
58072;BME280;60383;46.626;18.866;2023-02-22T04:17:30;100502.78;;;6.66;74.64
58072;BME280;60383;46.626;18.866;2023-02-22T04:19:56;100503.50;;;6.68;74.77
58072;BME280;60383;46.626;18.866;2023-02-22T04:22:21;100491.09;;;6.54;75.12
58072;BME280;60383;46.626;18.866;2023-02-22T04:24:47;100495.94;;;6.50;75.25
58072;BME280;60383;46.626;18.866;2023-02-22T04:27:13;100502.88;;;6.43;75.77
58072;BME280;60383;46.626;18.866;2023-02-22T04:29:39;100495.47;;;6.34;75.84
58072;BME280;60383;46.626;18.866;2023-02-22T04:32:05;100493.88;;;6.31;76.34
58072;BME280;60383;46.626;18.866;2023-02-22T04:34:30;100493.88;;;6.31;76.26
58072;BME280;60383;46.626;18.866;2023-02-22T04:36:56;100486.19;;;6.36;76.35
58072;BME280;60383;46.626;18.866;2023-02-22T04:39:21;100492.84;;;6.44;76.47
58072;BME280;60383;46.626;18.866;2023-02-22T04:41:47;100486.50;;;6.54;75.84
58072;BME280;60383;46.626;18.866;2023-02-22T04:44:13;100495.13;;;6.60;75.87
58072;BME280;60383;46.626;18.866;2023-02-22T04:46:38;100492.00;;;6.32;76.39
58072;BME280;60383;46.626;18.866;2023-02-22T04:49:04;100503.13;;;6.40;76.76
58072;BME280;60383;46.626;18.866;2023-02-22T04:51:29;100504.28;;;6.26;77.28
58072;BME280;60383;46.626;18.866;2023-02-22T04:53:55;100504.28;;;6.26;77.02
58072;BME280;60383;46.626;18.866;2023-02-22T04:56:20;100502.41;;;6.27;76.96
58072;BME280;60383;46.626;18.866;2023-02-22T04:58:46;100499.09;;;6.34;76.16
58072;BME280;60383;46.626;18.866;2023-02-22T05:01:13;100499.69;;;6.27;77.39
58072;BME280;60383;46.626;18.866;2023-02-22T05:03:38;100505.97;;;6.38;77.30
58072;BME280;60383;46.626;18.866;2023-02-22T05:06:04;100496.97;;;6.27;77.70
58072;BME280;60383;46.626;18.866;2023-02-22T05:08:30;100491.81;;;6.56;76.77
58072;BME280;60383;46.626;18.866;2023-02-22T05:10:55;100489.44;;;6.63;76.42
58072;BME280;60383;46.626;18.866;2023-02-22T05:13:21;100490.72;;;6.47;76.52
58072;BME280;60383;46.626;18.866;2023-02-22T05:15:46;100487.69;;;6.41;76.56
58072;BME280;60383;46.626;18.866;2023-02-22T05:18:13;100495.03;;;6.61;75.63
58072;BME280;60383;46.626;18.866;2023-02-22T05:20:39;100497.56;;;6.42;76.43
58072;BME280;60383;46.626;18.866;2023-02-22T05:23:04;100500.78;;;6.35;77.32
58072;BME280;60383;46.626;18.866;2023-02-22T05:25:31;100491.47;;;6.49;76.69
58072;BME280;60383;46.626;18.866;2023-02-22T05:28:00;100499.47;;;6.62;76.12
58072;BME280;60383;46.626;18.866;2023-02-22T05:30:32;100498.28;;;6.55;76.13
58072;BME280;60383;46.626;18.866;2023-02-22T05:32:59;100507.75;;;6.61;76.87
58072;BME280;60383;46.626;18.866;2023-02-22T05:35:26;100498.44;;;6.75;75.71
58072;BME280;60383;46.626;18.866;2023-02-22T05:37:52;100501.44;;;6.93;74.89
58072;BME280;60383;46.626;18.866;2023-02-22T05:40:19;100509.47;;;6.94;75.54
58072;BME280;60383;46.626;18.866;2023-02-22T05:42:46;100499.56;;;6.93;74.30
58072;BME280;60383;46.626;18.866;2023-02-22T05:45:13;100511.50;;;7.02;74.79
58072;BME280;60383;46.626;18.866;2023-02-22T05:47:39;100505.28;;;7.11;74.69
58072;BME280;60383;46.626;18.866;2023-02-22T05:50:04;100508.53;;;7.26;73.62
58072;BME280;60383;46.626;18.866;2023-02-22T05:52:30;100509.25;;;7.28;73.54
58072;BME280;60383;46.626;18.866;2023-02-22T05:54:56;100512.88;;;7.39;72.94
58072;BME280;60383;46.626;18.866;2023-02-22T05:57:21;100516.16;;;7.54;72.89
58072;BME280;60383;46.626;18.866;2023-02-22T05:59:46;100516.91;;;7.65;72.47
58072;BME280;60383;46.626;18.866;2023-02-22T06:02:12;100519.88;;;8.34;69.46
58072;BME280;60383;46.626;18.866;2023-02-22T06:04:37;100519.72;;;8.36;69.49
58072;BME280;60383;46.626;18.866;2023-02-22T06:07:04;100523.97;;;8.19;70.16
58072;BME280;60383;46.626;18.866;2023-02-22T06:09:30;100529.63;;;8.27;69.90
58072;BME280;60383;46.626;18.866;2023-02-22T06:11:56;100528.69;;;8.47;68.73
58072;BME280;60383;46.626;18.866;2023-02-22T06:14:21;100529.56;;;8.58;68.18
58072;BME280;60383;46.626;18.866;2023-02-22T06:16:55;100533.00;;;8.89;67.64
58072;BME280;60383;46.626;18.866;2023-02-22T06:19:21;100534.03;;;9.08;67.00
58072;BME280;60383;46.626;18.866;2023-02-22T06:21:50;100536.03;;;9.73;64.47
58072;BME280;60383;46.626;18.866;2023-02-22T06:24:16;100530.69;;;10.09;63.40
58072;BME280;60383;46.626;18.866;2023-02-22T06:26:42;100540.13;;;9.59;64.24
58072;BME280;60383;46.626;18.866;2023-02-22T06:29:07;100541.31;;;10.22;62.96
58072;BME280;60383;46.626;18.866;2023-02-22T06:31:33;100542.31;;;10.49;61.77
58072;BME280;60383;46.626;18.866;2023-02-22T06:33:59;100546.19;;;10.74;60.76
58072;BME280;60383;46.626;18.866;2023-02-22T06:36:24;100545.47;;;10.72;60.43
58072;BME280;60383;46.626;18.866;2023-02-22T06:38:50;100553.81;;;10.52;60.72
58072;BME280;60383;46.626;18.866;2023-02-22T06:41:15;100546.91;;;10.48;61.69
58072;BME280;60383;46.626;18.866;2023-02-22T06:43:40;100551.72;;;11.18;59.43
58072;BME280;60383;46.626;18.866;2023-02-22T06:46:10;100545.16;;;12.17;57.02
58072;BME280;60383;46.626;18.866;2023-02-22T06:48:37;100550.69;;;12.76;54.95
58072;BME280;60383;46.626;18.866;2023-02-22T06:51:05;100553.47;;;13.17;53.76
58072;BME280;60383;46.626;18.866;2023-02-22T06:53:32;100561.03;;;13.48;52.54
58072;BME280;60383;46.626;18.866;2023-02-22T06:55:58;100557.03;;;13.84;51.60
58072;BME280;60383;46.626;18.866;2023-02-22T06:58:23;100553.28;;;13.60;52.13
58072;BME280;60383;46.626;18.866;2023-02-22T07:00:49;100555.03;;;13.61;51.70
58072;BME280;60383;46.626;18.866;2023-02-22T07:03:14;100548.53;;;14.10;50.68
58072;BME280;60383;46.626;18.866;2023-02-22T07:05:40;100558.50;;;14.11;50.60
58072;BME280;60383;46.626;18.866;2023-02-22T07:08:06;100556.28;;;13.98;51.00
58072;BME280;60383;46.626;18.866;2023-02-22T07:10:33;100550.69;;;13.75;51.93
58072;BME280;60383;46.626;18.866;2023-02-22T07:13:00;100557.53;;;13.87;51.13
58072;BME280;60383;46.626;18.866;2023-02-22T07:15:27;100552.41;;;13.76;52.10
58072;BME280;60383;46.626;18.866;2023-02-22T07:17:54;100556.56;;;13.72;52.14
58072;BME280;60383;46.626;18.866;2023-02-22T07:20:20;100556.34;;;13.82;51.51
58072;BME280;60383;46.626;18.866;2023-02-22T07:22:48;100556.56;;;13.72;51.78
58072;BME280;60383;46.626;18.866;2023-02-22T07:25:14;100553.25;;;13.77;52.82
58072;BME280;60383;46.626;18.866;2023-02-22T07:27:40;100559.75;;;14.00;52.29
58072;BME280;60383;46.626;18.866;2023-02-22T07:30:30;100550.75;;;14.15;51.56
58072;BME280;60383;46.626;18.866;2023-02-22T07:32:58;100558.25;;;14.29;52.17
58072;BME280;60383;46.626;18.866;2023-02-22T07:35:29;100562.31;;;14.50;51.74
58072;BME280;60383;46.626;18.866;2023-02-22T07:37:55;100555.16;;;14.64;51.12
58072;BME280;60383;46.626;18.866;2023-02-22T07:40:21;100563.41;;;14.72;51.37
58072;BME280;60383;46.626;18.866;2023-02-22T07:45:24;100540.53;;;14.95;50.87
58072;BME280;60383;46.626;18.866;2023-02-22T07:47:51;100542.66;;;15.08;50.57
58072;BME280;60383;46.626;18.866;2023-02-22T07:50:17;100539.47;;;15.19;50.10
58072;BME280;60383;46.626;18.866;2023-02-22T07:52:45;100543.63;;;15.15;51.03
58072;BME280;60383;46.626;18.866;2023-02-22T07:55:12;100546.81;;;14.80;50.68
58072;BME280;60383;46.626;18.866;2023-02-22T07:57:37;100550.09;;;14.44;51.95
58072;BME280;60383;46.626;18.866;2023-02-22T08:00:03;100552.88;;;14.36;53.01
58072;BME280;60383;46.626;18.866;2023-02-22T08:02:29;100544.81;;;14.34;52.46
58072;BME280;60383;46.626;18.866;2023-02-22T08:04:54;100549.50;;;14.26;52.33
58072;BME280;60383;46.626;18.866;2023-02-22T08:07:20;100547.31;;;14.13;52.21
58072;BME280;60383;46.626;18.866;2023-02-22T08:09:45;100556.97;;;14.09;53.37
58072;BME280;60383;46.626;18.866;2023-02-22T08:12:10;100548.22;;;13.97;52.80
58072;BME280;60383;46.626;18.866;2023-02-22T08:14:36;100554.56;;;13.97;52.86
58072;BME280;60383;46.626;18.866;2023-02-22T08:17:01;100540.94;;;14.12;53.62
58072;BME280;60383;46.626;18.866;2023-02-22T08:19:27;100546.53;;;14.35;52.80
58072;BME280;60383;46.626;18.866;2023-02-22T08:21:52;100553.16;;;14.49;53.09
58072;BME280;60383;46.626;18.866;2023-02-22T08:24:18;100547.22;;;14.37;51.99
58072;BME280;60383;46.626;18.866;2023-02-22T08:26:46;100543.78;;;14.35;53.15
58072;BME280;60383;46.626;18.866;2023-02-22T08:29:12;100542.00;;;14.43;52.35
58072;BME280;60383;46.626;18.866;2023-02-22T08:31:39;100545.34;;;14.30;52.37
58072;BME280;60383;46.626;18.866;2023-02-22T08:34:05;100546.97;;;14.08;52.70
58072;BME280;60383;46.626;18.866;2023-02-22T08:36:30;100554.94;;;14.02;53.16
58072;BME280;60383;46.626;18.866;2023-02-22T08:38:57;100553.41;;;13.83;53.13
58072;BME280;60383;46.626;18.866;2023-02-22T08:41:23;100554.66;;;13.64;54.63
58072;BME280;60383;46.626;18.866;2023-02-22T08:43:48;100546.06;;;13.76;54.59
58072;BME280;60383;46.626;18.866;2023-02-22T08:46:16;100544.84;;;13.78;55.28
58072;BME280;60383;46.626;18.866;2023-02-22T08:48:51;100542.09;;;14.26;52.91
58072;BME280;60383;46.626;18.866;2023-02-22T08:51:18;100548.59;;;14.33;52.41
58072;BME280;60383;46.626;18.866;2023-02-22T08:53:43;100542.59;;;14.69;52.12
58072;BME280;60383;46.626;18.866;2023-02-22T08:56:09;100539.03;;;15.07;50.03
58072;BME280;60383;46.626;18.866;2023-02-22T08:58:35;100539.50;;;15.34;49.76
58072;BME280;60383;46.626;18.866;2023-02-22T09:01:00;100550.31;;;15.59;49.34
58072;BME280;60383;46.626;18.866;2023-02-22T09:03:26;100540.16;;;15.74;49.65
58072;BME280;60383;46.626;18.866;2023-02-22T09:05:52;100543.66;;;15.68;48.68
58072;BME280;60383;46.626;18.866;2023-02-22T09:08:18;100538.06;;;15.61;48.71
58072;BME280;60383;46.626;18.866;2023-02-22T09:10:44;100543.47;;;15.55;49.51
58072;BME280;60383;46.626;18.866;2023-02-22T09:13:10;100538.06;;;15.23;49.46
58072;BME280;60383;46.626;18.866;2023-02-22T09:15:36;100541.31;;;15.42;49.63
58072;BME280;60383;46.626;18.866;2023-02-22T09:18:03;100535.03;;;15.33;50.86
58072;BME280;60383;46.626;18.866;2023-02-22T09:20:29;100539.72;;;15.32;50.19
58072;BME280;60383;46.626;18.866;2023-02-22T09:22:55;100534.34;;;15.31;50.15
58072;BME280;60383;46.626;18.866;2023-02-22T09:25:21;100539.97;;;14.99;50.78
58072;BME280;60383;46.626;18.866;2023-02-22T09:27:48;100535.44;;;15.07;51.07
58072;BME280;60383;46.626;18.866;2023-02-22T09:30:24;100535.31;;;15.00;51.33
58072;BME280;60383;46.626;18.866;2023-02-22T09:32:54;100542.25;;;14.64;51.56
58072;BME280;60383;46.626;18.866;2023-02-22T09:35:19;100538.84;;;13.58;54.19
58072;BME280;60383;46.626;18.866;2023-02-22T09:37:51;100540.38;;;13.69;54.40
58072;BME280;60383;46.626;18.866;2023-02-22T09:40:17;100543.13;;;13.69;54.38
58072;BME280;60383;46.626;18.866;2023-02-22T09:48:21;100534.56;;;14.12;54.17
58072;BME280;60383;46.626;18.866;2023-02-22T09:50:48;100529.84;;;14.29;53.00
58072;BME280;60383;46.626;18.866;2023-02-22T09:56:03;100530.94;;;14.19;53.77
58072;BME280;60383;46.626;18.866;2023-02-22T09:59:04;100533.72;;;14.11;53.98
58072;BME280;60383;46.626;18.866;2023-02-22T10:01:32;100535.34;;;14.29;54.28
58072;BME280;60383;46.626;18.866;2023-02-22T10:06:29;100539.34;;;14.18;53.92
58072;BME280;60383;46.626;18.866;2023-02-22T10:08:57;100538.78;;;14.31;54.35
58072;BME280;60383;46.626;18.866;2023-02-22T10:14:51;100532.84;;;14.50;52.91
58072;BME280;60383;46.626;18.866;2023-02-22T10:17:43;100532.56;;;14.37;52.98
58072;BME280;60383;46.626;18.866;2023-02-22T10:23:12;100527.84;;;14.46;53.65
58072;BME280;60383;46.626;18.866;2023-02-22T10:25:39;100519.41;;;14.16;53.00
58072;BME280;60383;46.626;18.866;2023-02-22T10:28:15;100519.75;;;14.13;53.92
58072;BME280;60383;46.626;18.866;2023-02-22T10:30:49;100522.47;;;14.21;54.04
58072;BME280;60383;46.626;18.866;2023-02-22T10:33:23;100521.94;;;14.26;53.26
58072;BME280;60383;46.626;18.866;2023-02-22T10:35:52;100520.34;;;14.31;54.14
58072;BME280;60383;46.626;18.866;2023-02-22T10:38:21;100514.22;;;14.21;53.74
58072;BME280;60383;46.626;18.866;2023-02-22T10:43:37;100510.50;;;14.05;54.56
58072;BME280;60383;46.626;18.866;2023-02-22T10:46:07;100514.03;;;14.22;54.14
58072;BME280;60383;46.626;18.866;2023-02-22T10:48:37;100506.00;;;14.13;54.08
58072;BME280;60383;46.626;18.866;2023-02-22T10:51:07;100500.50;;;14.04;54.33
58072;BME280;60383;46.626;18.866;2023-02-22T10:53:33;100507.03;;;14.12;54.47
58072;BME280;60383;46.626;18.866;2023-02-22T10:58:43;100501.13;;;14.23;53.36
58072;BME280;60383;46.626;18.866;2023-02-22T11:01:37;100501.47;;;14.20;54.20
58072;BME280;60383;46.626;18.866;2023-02-22T11:06:37;100503.94;;;14.06;55.12
58072;BME280;60383;46.626;18.866;2023-02-22T11:09:06;100493.25;;;14.12;55.06
58072;BME280;60383;46.626;18.866;2023-02-22T11:11:35;100488.25;;;14.15;54.56
58072;BME280;60383;46.626;18.866;2023-02-22T11:14:01;100494.53;;;14.32;54.69
58072;BME280;60383;46.626;18.866;2023-02-22T11:19:02;100487.28;;;14.31;55.05
58072;BME280;60383;46.626;18.866;2023-02-22T11:21:30;100494.13;;;14.12;56.49
58072;BME280;60383;46.626;18.866;2023-02-22T11:24:06;100481.00;;;14.14;55.96
58072;BME280;60383;46.626;18.866;2023-02-22T11:26:41;100483.34;;;14.02;56.36
58072;BME280;60383;46.626;18.866;2023-02-22T11:29:30;100484.56;;;14.00;56.60
58072;BME280;60383;46.626;18.866;2023-02-22T11:31:58;100479.25;;;14.21;55.59
58072;BME280;60383;46.626;18.866;2023-02-22T11:34:35;100482.75;;;14.15;55.79
58072;BME280;60383;46.626;18.866;2023-02-22T11:39:48;100474.72;;;13.97;55.63
58072;BME280;60383;46.626;18.866;2023-02-22T11:42:28;100477.59;;;14.12;55.64
58072;BME280;60383;46.626;18.866;2023-02-22T11:45:26;100472.81;;;14.37;54.49
58072;BME280;60383;46.626;18.866;2023-02-22T11:48:00;100484.00;;;14.36;54.88
58072;BME280;60383;46.626;18.866;2023-02-22T11:50:30;100477.72;;;14.19;55.11
58072;BME280;60383;46.626;18.866;2023-02-22T11:55:34;100469.84;;;14.16;55.05
58072;BME280;60383;46.626;18.866;2023-02-22T11:58:19;100476.69;;;14.20;54.40
58072;BME280;60383;46.626;18.866;2023-02-22T12:00:59;100467.63;;;14.11;55.08
58072;BME280;60383;46.626;18.866;2023-02-22T12:11:33;100458.34;;;14.90;52.41
58072;BME280;60383;46.626;18.866;2023-02-22T12:14:06;100449.47;;;15.03;52.68
58072;BME280;60383;46.626;18.866;2023-02-22T12:21:56;100444.09;;;15.01;52.32
58072;BME280;60383;46.626;18.866;2023-02-22T12:24:27;100447.84;;;15.09;52.07
58072;BME280;60383;46.626;18.866;2023-02-22T12:27:06;100448.06;;;14.84;53.15
58072;BME280;60383;46.626;18.866;2023-02-22T12:29:44;100438.06;;;15.21;52.12
58072;BME280;60383;46.626;18.866;2023-02-22T12:32:45;100433.06;;;15.40;50.37
58072;BME280;60383;46.626;18.866;2023-02-22T12:38:05;100424.09;;;15.53;50.73
58072;BME280;60383;46.626;18.866;2023-02-22T12:40:43;100429.97;;;15.20;51.48
58072;BME280;60383;46.626;18.866;2023-02-22T12:43:32;100429.75;;;15.44;51.04
58072;BME280;60383;46.626;18.866;2023-02-22T12:46:11;100427.53;;;15.40;51.16
58072;BME280;60383;46.626;18.866;2023-02-22T12:48:53;100417.06;;;15.50;50.71
58072;BME280;60383;46.626;18.866;2023-02-22T12:51:33;100415.84;;;15.68;50.39
58072;BME280;60383;46.626;18.866;2023-02-22T12:54:36;100419.16;;;15.48;50.74
58072;BME280;60383;46.626;18.866;2023-02-22T12:57:33;100420.75;;;15.27;51.15
58072;BME280;60383;46.626;18.866;2023-02-22T13:00:25;100420.31;;;15.39;50.67
58072;BME280;60383;46.626;18.866;2023-02-22T13:05:21;100417.91;;;15.65;49.39
58072;BME280;60383;46.626;18.866;2023-02-22T13:13:17;100419.25;;;15.40;50.17
58072;BME280;60383;46.626;18.866;2023-02-22T13:16:20;100409.19;;;15.47;50.70
58072;BME280;60383;46.626;18.866;2023-02-22T13:21:56;100421.97;;;15.25;50.12
58072;BME280;60383;46.626;18.866;2023-02-22T13:24:28;100414.94;;;15.22;51.19
58072;BME280;60383;46.626;18.866;2023-02-22T13:27:00;100414.78;;;15.39;50.64
58072;BME280;60383;46.626;18.866;2023-02-22T13:29:36;100404.22;;;15.42;49.96
58072;BME280;60383;46.626;18.866;2023-02-22T13:53:34;100405.47;;;15.40;50.15
58072;BME280;60383;46.626;18.866;2023-02-22T13:56:03;100408.78;;;15.35;49.79
58072;BME280;60383;46.626;18.866;2023-02-22T13:58:29;100405.16;;;15.20;50.25
58072;BME280;60383;46.626;18.866;2023-02-22T14:00:57;100399.06;;;15.09;50.10
58072;BME280;60383;46.626;18.866;2023-02-22T14:03:38;100399.66;;;14.81;50.90
58072;BME280;60383;46.626;18.866;2023-02-22T14:06:09;100396.03;;;14.81;51.36
58072;BME280;60383;46.626;18.866;2023-02-22T14:08:46;100397.66;;;14.75;51.23
58072;BME280;60383;46.626;18.866;2023-02-22T14:16:24;100394.94;;;14.90;50.02
58072;BME280;60383;46.626;18.866;2023-02-22T14:18:59;100395.13;;;14.89;49.96
58072;BME280;60383;46.626;18.866;2023-02-22T14:21:26;100396.16;;;14.88;49.80
58072;BME280;60383;46.626;18.866;2023-02-22T14:23:53;100392.47;;;14.95;49.59
58072;BME280;60383;46.626;18.866;2023-02-22T14:26:28;100394.47;;;15.01;48.94
58072;BME280;60383;46.626;18.866;2023-02-22T14:34:50;100390.94;;;14.93;49.00
58072;BME280;60383;46.626;18.866;2023-02-22T14:37:27;100383.44;;;15.01;48.24
58072;BME280;60383;46.626;18.866;2023-02-22T14:39:59;100383.84;;;14.98;48.16
58072;BME280;60383;46.626;18.866;2023-02-22T14:42:38;100394.31;;;14.80;48.68
58072;BME280;60383;46.626;18.866;2023-02-22T14:47:57;100381.72;;;14.62;49.35
58072;BME280;60383;46.626;18.866;2023-02-22T14:55:41;100375.50;;;14.60;50.29
58072;BME280;60383;46.626;18.866;2023-02-22T14:58:39;100375.50;;;14.60;49.31
58072;BME280;60383;46.626;18.866;2023-02-22T15:03:45;100378.97;;;14.39;50.00
58072;BME280;60383;46.626;18.866;2023-02-22T15:06:17;100367.69;;;14.49;50.05
58072;BME280;60383;46.626;18.866;2023-02-22T15:08:44;100367.16;;;14.53;49.65